Time;durP1;ratioP1;P1;durP2;ratioP2;P2;SDS_P1;SDS_P2;PMS_P1;PMS_P2;Temp;Humidity;BMP_temperature;BMP_pressure;BME280_temperature;BME280_humidity;BME280_pressure;Samples;Min_cycle;Max_cycle;Signal;HPM_P1;HPM_P2
2022/10/28 00:00:30;;;;;;;6.10;3.70;;;;;;;;;;5155869;27;20885;-72
2022/10/28 00:03:00;;;;;;;4.60;3.70;;;;;;;;;;5155914;27;20444;-72
2022/10/28 00:05:27;;;;;;;9.73;4.30;;;;;;;;;;5154712;27;20467;-72
2022/10/28 00:07:54;;;;;;;5.50;4.07;;;;;;;;;;5155506;27;20817;-72
2022/10/28 00:10:21;;;;;;;5.50;3.63;;;;;;;;;;5155635;27;20447;-72
2022/10/28 00:12:48;;;;;;;5.33;3.00;;;;;;;;;;5155159;27;20783;-72
2022/10/28 00:15:15;;;;;;;5.43;3.83;;;;;;;;;;5154721;27;20472;-72
2022/10/28 00:17:44;;;;;;;5.63;3.50;;;;;;;;;;5155279;27;20797;-72
2022/10/28 00:20:11;;;;;;;11.13;3.63;;;;;;;;;;5155476;27;20451;-72
2022/10/28 00:22:38;;;;;;;6.00;4.50;;;;;;;;;;5155147;27;20482;-72
2022/10/28 00:25:06;;;;;;;4.70;3.30;;;;;;;;;;5152734;27;20932;-72
2022/10/28 00:27:33;;;;;;;4.77;3.80;;;;;;;;;;5155090;27;20443;-72
2022/10/28 00:30:00;;;;;;;7.90;3.97;;;;;;;;;;5155573;27;20970;-72
2022/10/28 00:32:29;;;;;;;4.40;3.60;;;;;;;;;;5153007;27;20491;-72
2022/10/28 00:34:57;;;;;;;10.23;4.50;;;;;;;;;;5154350;27;20796;-72
2022/10/28 00:37:24;;;;;;;7.53;3.40;;;;;;;;;;5155006;27;20445;-72
2022/10/28 00:39:51;;;;;;;5.10;4.13;;;;;;;;;;5154258;27;20439;-72
2022/10/28 00:42:21;;;;;;;7.80;4.07;;;;;;;;;;5154930;27;20448;-72
2022/10/28 00:44:55;;;;;;;4.10;3.70;;;;;;;;;;5154112;27;20451;-72
2022/10/28 00:47:29;;;;;;;7.07;4.27;;;;;;;;;;5154862;27;20469;-72
2022/10/28 00:49:59;;;;;;;5.57;3.70;;;;;;;;;;5154759;27;20440;-72
2022/10/28 00:52:28;;;;;;;7.93;4.30;;;;;;;;;;5154699;27;20483;-72
2022/10/28 00:54:57;;;;;;;4.43;3.93;;;;;;;;;;5154055;27;20816;-72
2022/10/28 00:57:27;;;;;;;10.80;4.10;;;;;;;;;;5154741;27;20443;-72
2022/10/28 00:59:54;;;;;;;5.00;3.80;;;;;;;;;;5154660;27;20462;-72
2022/10/28 01:02:21;;;;;;;9.73;4.10;;;;;;;;;;5152604;27;20451;-72
2022/10/28 01:04:49;;;;;;;13.57;4.37;;;;;;;;;;5154031;27;20440;-72
2022/10/28 01:07:17;;;;;;;6.40;4.20;;;;;;;;;;5152838;27;20470;-72
2022/10/28 01:09:45;;;;;;;7.93;4.80;;;;;;;;;;5154470;27;20963;-72
2022/10/28 01:12:18;;;;;;;7.20;4.60;;;;;;;;;;5154250;27;20549;-72
2022/10/28 01:14:52;;;;;;;10.30;4.80;;;;;;;;;;5153802;27;20459;-72
2022/10/28 01:17:25;;;;;;;9.20;4.43;;;;;;;;;;5154523;27;20928;-72
2022/10/28 01:20:23;;;;;;;4.50;3.50;;;;;;;;;;5154212;27;20447;-72
2022/10/28 01:22:54;;;;;;;7.40;4.30;;;;;;;;;;5154231;27;20470;-72
2022/10/28 01:25:45;;;;;;;17.30;4.57;;;;;;;;;;5153665;27;20833;-72
2022/10/28 01:28:28;;;;;;;7.77;4.40;;;;;;;;;;5077596;27;20459;-72
2022/10/28 01:31:16;;;;;;;8.00;4.30;;;;;;;;;;5154420;27;20424;-72
2022/10/28 01:33:47;;;;;;;10.50;4.37;;;;;;;;;;5153533;27;20446;-72
2022/10/28 01:36:16;;;;;;;8.53;6.00;;;;;;;;;;5154193;27;20463;-72
2022/10/28 01:38:49;;;;;;;6.30;5.50;;;;;;;;;;5154034;27;20447;-72
2022/10/28 01:41:18;;;;;;;11.13;6.20;;;;;;;;;;5154224;27;20435;-72
2022/10/28 01:43:47;;;;;;;10.30;7.33;;;;;;;;;;5153508;27;20571;-72
2022/10/28 01:46:18;;;;;;;9.40;6.07;;;;;;;;;;5153943;27;20468;-72
2022/10/28 01:48:47;;;;;;;7.77;6.23;;;;;;;;;;5154142;27;20447;-72
2022/10/28 01:51:17;;;;;;;10.40;6.17;;;;;;;;;;5155830;27;20455;-72
2022/10/28 01:53:46;;;;;;;11.07;6.67;;;;;;;;;;5157625;27;20457;-72
2022/10/28 01:56:17;;;;;;;9.37;6.87;;;;;;;;;;5157965;27;20841;-72
2022/10/28 01:58:44;;;;;;;11.00;7.10;;;;;;;;;;5158250;27;20455;-72
2022/10/28 02:01:12;;;;;;;7.03;6.33;;;;;;;;;;5158236;27;20452;-72
2022/10/28 02:03:40;;;;;;;7.40;6.53;;;;;;;;;;5157450;27;20443;-73
2022/10/28 02:06:14;;;;;;;8.80;6.63;;;;;;;;;;5157742;27;20463;-72
2022/10/28 02:08:50;;;;;;;9.93;7.30;;;;;;;;;;5157765;27;20451;-72
2022/10/28 02:11:23;;;;;;;10.03;6.40;;;;;;;;;;5158026;27;20944;-72
2022/10/28 02:13:55;;;;;;;10.13;6.20;;;;;;;;;;5157320;27;20792;-72
2022/10/28 02:16:24;;;;;;;16.77;7.13;;;;;;;;;;5157603;27;20468;-72
2022/10/28 02:18:58;;;;;;;12.20;7.10;;;;;;;;;;5157605;27;20451;-72
2022/10/28 02:21:30;;;;;;;9.53;6.17;;;;;;;;;;5157637;27;20447;-72
2022/10/28 02:24:00;;;;;;;8.30;7.00;;;;;;;;;;5155243;27;20448;-72
2022/10/28 02:26:33;;;;;;;10.17;6.50;;;;;;;;;;5157379;27;20474;-72
2022/10/28 02:29:03;;;;;;;6.60;6.00;;;;;;;;;;5157617;27;20443;-72
2022/10/28 02:31:32;;;;;;;9.87;7.20;;;;;;;;;;5155538;27;20443;-72
2022/10/28 02:34:02;;;;;;;11.30;6.70;;;;;;;;;;5157269;27;20967;-72
2022/10/28 02:36:31;;;;;;;11.03;6.90;;;;;;;;;;5157451;27;20463;-72
2022/10/28 02:38:59;;;;;;;7.67;6.87;;;;;;;;;;5157311;27;20454;-72
2022/10/28 02:41:30;;;;;;;9.77;6.33;;;;;;;;;;5157158;27;20913;-72
2022/10/28 02:43:59;;;;;;;7.37;6.57;;;;;;;;;;5156866;27;20444;-72
2022/10/28 02:46:29;;;;;;;9.43;6.97;;;;;;;;;;5156969;27;20463;-72
2022/10/28 02:48:57;;;;;;;14.60;7.00;;;;;;;;;;5157088;27;20943;-72
2022/10/28 02:51:30;;;;;;;11.10;6.80;;;;;;;;;;5157276;27;20470;-72
2022/10/28 02:54:00;;;;;;;9.73;6.00;;;;;;;;;;5156691;27;20436;-72
2022/10/28 02:56:27;;;;;;;9.40;6.47;;;;;;;;;;5156919;27;20474;-72
2022/10/28 02:58:55;;;;;;;7.60;5.83;;;;;;;;;;5156961;27;20451;-72
2022/10/28 03:01:22;;;;;;;10.30;6.63;;;;;;;;;;5155577;27;20924;-72
2022/10/28 03:03:49;;;;;;;10.67;6.00;;;;;;;;;;5155315;27;20439;-72
2022/10/28 03:06:16;;;;;;;7.43;5.97;;;;;;;;;;5155084;27;20467;-72
2022/10/28 03:08:45;;;;;;;10.90;6.17;;;;;;;;;;5156619;27;20453;-72
2022/10/28 03:11:12;;;;;;;8.50;6.30;;;;;;;;;;5156555;27;20457;-72
2022/10/28 03:13:39;;;;;;;11.83;7.37;;;;;;;;;;5156141;27;20491;-72
2022/10/28 03:16:06;;;;;;;8.83;7.00;;;;;;;;;;5156490;27;20468;-72
2022/10/28 03:18:33;;;;;;;8.00;6.60;;;;;;;;;;5156487;27;20447;-72
2022/10/28 03:21:00;;;;;;;11.93;7.03;;;;;;;;;;5156599;27;20955;-72
2022/10/28 03:23:27;;;;;;;10.80;7.03;;;;;;;;;;5156012;27;20439;-72
2022/10/28 03:25:56;;;;;;;8.73;6.67;;;;;;;;;;5156355;27;20988;-72
2022/10/28 03:28:23;;;;;;;15.13;8.07;;;;;;;;;;5156394;27;20452;-72
2022/10/28 03:30:50;;;;;;;13.43;7.47;;;;;;;;;;5156203;27;20450;-72
2022/10/28 03:33:17;;;;;;;9.80;7.63;;;;;;;;;;5156216;27;20487;-72
2022/10/28 03:35:45;;;;;;;8.70;7.07;;;;;;;;;;5154052;27;20471;-72
2022/10/28 03:38:12;;;;;;;11.23;7.23;;;;;;;;;;5156052;27;20450;-72
2022/10/28 03:40:39;;;;;;;8.10;5.73;;;;;;;;;;5154731;27;21452;-72
2022/10/28 03:43:07;;;;;;;9.53;5.73;;;;;;;;;;5156221;27;20506;-72
2022/10/28 03:45:35;;;;;;;7.20;6.30;;;;;;;;;;5155496;27;20467;-72
2022/10/28 03:48:02;;;;;;;9.80;6.77;;;;;;;;;;5156159;27;20790;-72
2022/10/28 03:50:29;;;;;;;6.13;5.20;;;;;;;;;;5155844;27;20459;-72
2022/10/28 03:52:56;;;;;;;8.73;5.73;;;;;;;;;;5155652;27;20818;-72
2022/10/28 03:55:24;;;;;;;20.30;6.77;;;;;;;;;;5155263;27;20464;-72
2022/10/28 03:57:51;;;;;;;9.50;6.00;;;;;;;;;;5155815;27;20448;-72
2022/10/28 04:00:20;;;;;;;7.80;6.73;;;;;;;;;;5155690;27;20455;-72
2022/10/28 04:02:50;;;;;;;23.70;8.23;;;;;;;;;;5155653;27;20446;-72
2022/10/28 04:05:17;;;;;;;17.67;9.40;;;;;;;;;;5155130;27;20875;-72
2022/10/28 04:07:45;;;;;;;20.07;10.53;;;;;;;;;;5155490;27;20448;-72
2022/10/28 04:10:12;;;;;;;25.63;9.90;;;;;;;;;;5155571;27;20944;-72
2022/10/28 04:12:39;;;;;;;23.03;10.53;;;;;;;;;;5153817;27;20854;-72
2022/10/28 04:15:07;;;;;;;17.80;10.10;;;;;;;;;;5154768;27;20451;-72
2022/10/28 04:17:36;;;;;;;20.80;10.63;;;;;;;;;;5155236;27;20443;-72
2022/10/28 04:20:03;;;;;;;25.70;11.27;;;;;;;;;;5155300;27;20466;-72
2022/10/28 04:22:30;;;;;;;66.40;12.40;;;;;;;;;;5153590;27;20447;-72
2022/10/28 04:24:57;;;;;;;71.27;13.30;;;;;;;;;;5152744;27;20455;-72
2022/10/28 04:27:24;;;;;;;34.10;11.87;;;;;;;;;;5155085;27;20459;-72
2022/10/28 04:29:52;;;;;;;43.00;13.20;;;;;;;;;;5155114;27;20467;-72
2022/10/28 04:32:19;;;;;;;63.30;12.20;;;;;;;;;;5154965;27;20447;-72
2022/10/28 04:34:47;;;;;;;59.27;14.53;;;;;;;;;;5154582;27;20448;-72
2022/10/28 04:37:14;;;;;;;40.00;13.20;;;;;;;;;;5154972;27;20470;-71
2022/10/28 04:39:42;;;;;;;29.73;13.60;;;;;;;;;;5154986;27;20444;-72
2022/10/28 04:42:09;;;;;;;24.33;11.47;;;;;;;;;;5155188;27;20814;-72
2022/10/28 04:44:36;;;;;;;26.77;13.60;;;;;;;;;;5154363;27;20447;-72
2022/10/28 04:47:03;;;;;;;28.60;13.60;;;;;;;;;;5154753;27;20858;-72
2022/10/28 04:49:30;;;;;;;26.37;11.90;;;;;;;;;;5154628;27;20944;-72
2022/10/28 04:51:59;;;;;;;25.03;12.00;;;;;;;;;;5153231;27;20443;-72
2022/10/28 04:54:26;;;;;;;25.57;12.17;;;;;;;;;;5154289;27;20556;-72
2022/10/28 04:56:54;;;;;;;32.40;18.03;;;;;;;;;;5153657;27;20823;-72
2022/10/28 04:59:22;;;;;;;27.57;15.13;;;;;;;;;;5154458;27;20448;-72
2022/10/28 05:01:49;;;;;;;24.60;13.33;;;;;;;;;;5152008;27;20827;-72
2022/10/28 05:04:16;;;;;;;19.87;12.30;;;;;;;;;;5153253;27;20817;-72
2022/10/28 05:06:43;;;;;;;29.50;13.40;;;;;;;;;;5153975;27;20471;-72
2022/10/28 05:09:11;;;;;;;23.37;12.87;;;;;;;;;;5154218;27;20440;-72
2022/10/28 05:11:38;;;;;;;29.83;14.17;;;;;;;;;;5154079;27;20459;-71
2022/10/28 05:14:06;;;;;;;20.83;12.90;;;;;;;;;;5153276;27;20490;-72
2022/10/28 05:16:33;;;;;;;27.03;12.23;;;;;;;;;;5153652;27;20465;-72
2022/10/28 05:19:00;;;;;;;22.77;13.07;;;;;;;;;;5154257;27;20808;-72
2022/10/28 05:21:27;;;;;;;26.70;13.97;;;;;;;;;;5154051;27;20848;-72
2022/10/28 05:23:54;;;;;;;23.73;14.50;;;;;;;;;;5151606;27;20459;-72
2022/10/28 05:26:23;;;;;;;20.63;13.63;;;;;;;;;;5152807;27;20475;-72
2022/10/28 05:28:50;;;;;;;29.73;13.90;;;;;;;;;;5153958;27;20816;-72
2022/10/28 05:31:18;;;;;;;22.03;13.77;;;;;;;;;;5152530;27;20456;-72
2022/10/28 05:33:45;;;;;;;25.13;14.80;;;;;;;;;;5153040;27;20487;-72
2022/10/28 05:36:12;;;;;;;33.57;21.40;;;;;;;;;;5153606;27;20588;-72
2022/10/28 05:38:41;;;;;;;24.40;14.97;;;;;;;;;;5153930;27;20447;-72
2022/10/28 05:41:08;;;;;;;22.00;14.50;;;;;;;;;;5153753;27;20459;-72
2022/10/28 05:43:36;;;;;;;18.67;13.53;;;;;;;;;;5153246;27;20444;-72
2022/10/28 05:46:04;;;;;;;22.27;13.07;;;;;;;;;;5153563;27;20471;-72
2022/10/28 05:48:31;;;;;;;19.40;12.67;;;;;;;;;;5153539;27;20975;-72
2022/10/28 05:50:58;;;;;;;20.47;12.57;;;;;;;;;;5153960;27;20809;-72
2022/10/28 05:53:25;;;;;;;18.20;11.33;;;;;;;;;;5153543;27;21031;-72
2022/10/28 05:55:52;;;;;;;24.63;12.00;;;;;;;;;;5153193;27;20474;-72
2022/10/28 05:58:19;;;;;;;17.80;11.97;;;;;;;;;;5153396;27;20451;-72
2022/10/28 06:00:48;;;;;;;21.13;13.17;;;;;;;;;;5152123;27;20452;-72
2022/10/28 06:03:15;;;;;;;22.07;12.47;;;;;;;;;;5153745;27;20448;-72
2022/10/28 06:05:43;;;;;;;18.40;11.20;;;;;;;;;;5152830;27;20467;-72
2022/10/28 06:08:10;;;;;;;17.47;10.70;;;;;;;;;;5152871;27;20447;-72
2022/10/28 06:10:37;;;;;;;15.23;9.97;;;;;;;;;;5153403;27;20492;-72
2022/10/28 06:13:05;;;;;;;17.10;10.10;;;;;;;;;;5153563;27;21019;-72
2022/10/28 06:15:32;;;;;;;13.50;9.70;;;;;;;;;;5152693;27;21107;-72
2022/10/28 06:18:01;;;;;;;12.33;8.50;;;;;;;;;;5153279;27;20443;-72
2022/10/28 06:20:28;;;;;;;11.90;8.80;;;;;;;;;;5153307;27;20451;-72
2022/10/28 06:22:56;;;;;;;15.73;8.97;;;;;;;;;;5153396;27;20460;-72
2022/10/28 06:25:24;;;;;;;22.53;8.40;;;;;;;;;;5152772;27;20516;-72
2022/10/28 06:27:54;;;;;;;9.90;7.07;;;;;;;;;;5153321;27;20447;-72
2022/10/28 06:30:21;;;;;;;8.53;6.63;;;;;;;;;;5153332;27;20443;-72
2022/10/28 06:32:48;;;;;;;13.97;8.23;;;;;;;;;;5153246;27;20529;-72
2022/10/28 06:35:16;;;;;;;7.20;5.50;;;;;;;;;;5152544;27;20861;-72
2022/10/28 06:37:44;;;;;;;7.37;6.63;;;;;;;;;;5153496;27;20452;-72
2022/10/28 06:40:11;;;;;;;6.30;5.70;;;;;;;;;;5157041;27;20936;-72
2022/10/28 06:42:38;;;;;;;8.10;5.67;;;;;;;;;;5156877;27;20447;-72
2022/10/28 06:45:06;;;;;;;7.13;5.93;;;;;;;;;;5152384;27;20455;-72
2022/10/28 06:47:33;;;;;;;11.90;7.93;;;;;;;;;;5155356;27;20451;-72
2022/10/28 06:50:00;;;;;;;8.80;7.10;;;;;;;;;;5156648;27;20443;-72
2022/10/28 06:52:29;;;;;;;11.50;7.63;;;;;;;;;;5155128;27;20444;-72
2022/10/28 06:54:56;;;;;;;8.70;7.67;;;;;;;;;;5154113;27;20506;-72
2022/10/28 06:57:23;;;;;;;9.17;7.23;;;;;;;;;;5156940;27;20471;-72
2022/10/28 06:59:50;;;;;;;10.20;8.73;;;;;;;;;;5156734;27;20460;-72
2022/10/28 07:02:17;;;;;;;9.20;8.20;;;;;;;;;;5156549;27;20451;-72
2022/10/28 07:04:44;;;;;;;12.07;8.70;;;;;;;;;;5155669;27;20451;-72
2022/10/28 07:07:11;;;;;;;12.43;8.20;;;;;;;;;;5156572;27;20468;-72
2022/10/28 07:09:41;;;;;;;8.57;7.10;;;;;;;;;;5156285;27;20448;-72
2022/10/28 07:12:09;;;;;;;9.83;7.77;;;;;;;;;;5156608;27;20495;-72
2022/10/28 07:14:36;;;;;;;12.30;6.77;;;;;;;;;;5155448;27;20846;-72
2022/10/28 07:17:04;;;;;;;9.73;6.17;;;;;;;;;;5156371;27;20474;-72
2022/10/28 07:19:31;;;;;;;9.07;6.87;;;;;;;;;;5156168;27;20455;-72
2022/10/28 07:21:58;;;;;;;15.13;7.07;;;;;;;;;;5156417;27;20454;-72
2022/10/28 07:24:25;;;;;;;15.97;8.67;;;;;;;;;;5155613;27;20509;-72
2022/10/28 07:26:53;;;;;;;12.00;8.73;;;;;;;;;;5156311;27;20475;-72
2022/10/28 07:29:20;;;;;;;12.23;8.73;;;;;;;;;;5156000;27;20454;-72
2022/10/28 07:31:48;;;;;;;10.07;7.90;;;;;;;;;;5155963;27;20809;-72
2022/10/28 07:34:15;;;;;;;15.63;8.30;;;;;;;;;;5155178;27;20487;-72
2022/10/28 07:36:42;;;;;;;12.33;7.83;;;;;;;;;;5155799;27;20471;-73
2022/10/28 07:39:10;;;;;;;17.43;8.13;;;;;;;;;;5155796;27;20467;-73
2022/10/28 07:41:38;;;;;;;17.13;10.07;;;;;;;;;;5155887;27;20458;-73
2022/10/28 07:44:06;;;;;;;14.00;7.37;;;;;;;;;;5155101;27;20451;-73
2022/10/28 07:46:34;;;;;;;9.90;6.80;;;;;;;;;;5155549;27;20558;-73
2022/10/28 07:49:01;;;;;;;6.13;5.20;;;;;;;;;;5155479;27;20439;-73
2022/10/28 07:51:28;;;;;;;8.50;5.40;;;;;;;;;;5153998;27;20666;-73
2022/10/28 07:53:56;;;;;;;7.20;4.50;;;;;;;;;;5155466;27;20491;-73
2022/10/28 07:56:24;;;;;;;8.70;5.50;;;;;;;;;;5155780;27;20463;-73
2022/10/28 07:58:51;;;;;;;4.60;4.13;;;;;;;;;;5155678;27;20455;-73
2022/10/28 08:01:21;;;;;;;4.57;4.10;;;;;;;;;;5155962;27;20813;-73
2022/10/28 08:03:48;;;;;;;4.50;3.67;;;;;;;;;;5137453;27;20840;-73
2022/10/28 08:06:16;;;;;;;4.90;3.77;;;;;;;;;;5134951;27;20982;-73
2022/10/28 08:08:44;;;;;;;5.73;4.40;;;;;;;;;;5134503;27;20452;-73
2022/10/28 08:11:11;;;;;;;8.67;4.17;;;;;;;;;;5134652;27;20461;-73
2022/10/28 08:13:38;;;;;;;4.60;4.00;;;;;;;;;;5134256;27;20488;-73
2022/10/28 08:16:06;;;;;;;4.20;3.80;;;;;;;;;;5141401;27;20478;-73
2022/10/28 08:18:35;;;;;;;4.80;3.40;;;;;;;;;;5153660;27;20481;-72
2022/10/28 08:21:03;;;;;;;7.20;3.60;;;;;;;;;;5153951;27;20946;-72
2022/10/28 08:23:30;;;;;;;3.63;3.33;;;;;;;;;;5152330;27;20448;-72
2022/10/28 08:25:57;;;;;;;4.77;3.63;;;;;;;;;;5151111;27;20478;-72
2022/10/28 08:28:25;;;;;;;4.67;3.50;;;;;;;;;;5153902;27;20444;-72
2022/10/28 08:30:52;;;;;;;4.00;3.13;;;;;;;;;;5151544;27;20451;-73
2022/10/28 08:33:19;;;;;;;4.77;3.50;;;;;;;;;;5153660;27;20448;-73
2022/10/28 08:35:51;;;;;;;4.43;4.03;;;;;;;;;;5152965;27;20471;-73
2022/10/28 08:38:18;;;;;;;5.50;3.33;;;;;;;;;;5153164;27;20448;-73
2022/10/28 08:40:52;;;;;;;3.70;3.27;;;;;;;;;;5153375;27;20948;-73
2022/10/28 08:43:24;;;;;;;4.67;3.10;;;;;;;;;;5153472;27;20451;-73
2022/10/28 08:45:54;;;;;;;4.43;2.80;;;;;;;;;;5152914;27;20836;-73
2022/10/28 08:48:26;;;;;;;7.63;3.40;;;;;;;;;;5153640;27;20555;-72
2022/10/28 08:50:59;;;;;;;15.37;11.33;;;;;;;;;;5154206;27;20451;-72
2022/10/28 08:53:27;;;;;;;3.93;3.13;;;;;;;;;;5153630;27;20448;-73
2022/10/28 08:55:57;;;;;;;3.90;3.50;;;;;;;;;;5154237;27;20467;-73
2022/10/28 08:58:26;;;;;;;4.10;3.10;;;;;;;;;;5154434;27;20443;-73
2022/10/28 09:00:54;;;;;;;5.70;3.50;;;;;;;;;;5143914;27;20475;-72
2022/10/28 09:03:22;;;;;;;7.37;4.70;;;;;;;;;;5153125;27;20451;-72
2022/10/28 09:05:54;;;;;;;2.93;2.63;;;;;;;;;;5150970;27;20467;-72
2022/10/28 09:08:24;;;;;;;2.97;2.50;;;;;;;;;;5152718;27;20458;-73
2022/10/28 09:11:04;;;;;;;4.43;3.03;;;;;;;;;;5152854;27;20455;-72
2022/10/28 09:13:36;;;;;;;3.70;2.70;;;;;;;;;;5152463;27;20451;-73
2022/10/28 09:16:08;;;;;;;3.40;2.40;;;;;;;;;;5152489;27;20463;-72
2022/10/28 09:18:47;;;;;;;6.03;3.17;;;;;;;;;;5152593;27;20448;-73
2022/10/28 09:21:16;;;;;;;3.03;2.70;;;;;;;;;;5152247;27;20463;-73
2022/10/28 09:23:48;;;;;;;5.43;2.60;;;;;;;;;;5152928;27;20798;-72
2022/10/28 09:26:19;;;;;;;3.90;2.30;;;;;;;;;;5152510;27;20539;-72
2022/10/28 09:28:51;;;;;;;5.50;2.80;;;;;;;;;;5153813;27;20516;-72
2022/10/28 09:31:25;;;;;;;4.67;3.33;;;;;;;;;;5153092;27;20443;-72
2022/10/28 09:33:56;;;;;;;8.40;3.83;;;;;;;;;;5153403;27;20443;-72
2022/10/28 09:36:25;;;;;;;7.10;3.50;;;;;;;;;;5152481;27;20463;-72
2022/10/28 09:38:56;;;;;;;4.40;3.23;;;;;;;;;;5153933;27;20822;-72
2022/10/28 09:41:25;;;;;;;5.60;3.90;;;;;;;;;;5151687;27;20452;-72
2022/10/28 09:43:53;;;;;;;7.13;4.27;;;;;;;;;;5153686;27;20814;-72
2022/10/28 09:46:22;;;;;;;8.00;4.13;;;;;;;;;;5154353;27;20467;-72
2022/10/28 09:48:51;;;;;;;5.03;3.80;;;;;;;;;;5154137;27;20447;-72
2022/10/28 09:51:24;;;;;;;6.23;3.47;;;;;;;;;;5152404;27;20544;-72
2022/10/28 09:53:55;;;;;;;2.80;2.33;;;;;;;;;;5153597;27;20444;-72
2022/10/28 09:56:22;;;;;;;3.77;3.00;;;;;;;;;;5153337;27;20478;-72
2022/10/28 09:58:49;;;;;;;6.90;3.70;;;;;;;;;;5152884;27;20450;-72
2022/10/28 10:01:17;;;;;;;4.20;3.13;;;;;;;;;;5154001;27;20440;-72
2022/10/28 10:03:45;;;;;;;3.63;3.27;;;;;;;;;;5153221;27;20451;-72
2022/10/28 10:06:14;;;;;;;3.90;2.40;;;;;;;;;;5153822;27;20582;-72
2022/10/28 10:08:41;;;;;;;2.60;2.40;;;;;;;;;;5153619;27;20448;-72
2022/10/28 10:11:14;;;;;;;4.20;2.83;;;;;;;;;;5152249;27;20828;-72
2022/10/28 10:13:42;;;;;;;4.00;2.60;;;;;;;;;;5157042;27;20451;-72
2022/10/28 10:16:14;;;;;;;7.67;3.00;;;;;;;;;;5155456;27;20491;-72
2022/10/28 10:18:45;;;;;;;3.80;2.83;;;;;;;;;;5157681;27;20443;-72
2022/10/28 10:21:13;;;;;;;7.30;3.20;;;;;;;;;;5157889;27;20454;-73
2022/10/28 10:23:40;;;;;;;7.23;3.97;;;;;;;;;;5156953;27;20451;-73
2022/10/28 10:26:09;;;;;;;9.80;3.87;;;;;;;;;;5156233;27;20463;-73
2022/10/28 10:28:39;;;;;;;11.40;5.27;;;;;;;;;;5157251;27;20443;-73
2022/10/28 10:31:08;;;;;;;7.73;4.70;;;;;;;;;;5157673;27;20454;-73
2022/10/28 10:33:36;;;;;;;5.10;3.97;;;;;;;;;;5156865;27;20443;-73
2022/10/28 10:36:04;;;;;;;9.67;3.77;;;;;;;;;;5157247;27;21014;-73
2022/10/28 10:38:32;;;;;;;8.07;4.00;;;;;;;;;;5156752;27;20462;-73
2022/10/28 10:40:59;;;;;;;6.97;4.77;;;;;;;;;;5157176;27;20439;-72
2022/10/28 10:43:31;;;;;;;10.27;4.00;;;;;;;;;;5157008;27;20451;-73
2022/10/28 10:46:04;;;;;;;11.90;4.73;;;;;;;;;;5155616;27;20470;-73
2022/10/28 10:48:32;;;;;;;3.87;3.17;;;;;;;;;;5157088;27;20448;-73
2022/10/28 10:51:05;;;;;;;3.90;2.90;;;;;;;;;;5155049;27;20456;-73
2022/10/28 10:53:32;;;;;;;3.87;2.33;;;;;;;;;;5156385;27;20448;-73
2022/10/28 10:56:01;;;;;;;5.20;2.27;;;;;;;;;;5156787;27;20862;-73
2022/10/28 10:58:30;;;;;;;3.43;2.13;;;;;;;;;;5156997;27;20454;-73
2022/10/28 11:00:59;;;;;;;4.43;2.80;;;;;;;;;;5157107;27;20447;-72
2022/10/28 11:03:29;;;;;;;6.57;3.00;;;;;;;;;;5156878;27;20822;-73
2022/10/28 11:05:58;;;;;;;6.00;3.20;;;;;;;;;;5156504;27;20472;-73
2022/10/28 11:08:32;;;;;;;6.03;2.77;;;;;;;;;;5156664;27;20447;-73
2022/10/28 11:11:13;;;;;;;6.43;3.50;;;;;;;;;;5156301;27;20448;-73
2022/10/28 11:13:40;;;;;;;7.40;3.90;;;;;;;;;;5156193;27;20890;-73
2022/10/28 11:16:17;;;;;;;6.50;3.60;;;;;;;;;;5156260;27;20499;-73
2022/10/28 11:18:46;;;;;;;7.43;3.63;;;;;;;;;;5156404;27;20511;-73
2022/10/28 11:21:25;;;;;;;10.43;5.63;;;;;;;;;;5156565;27;20937;-73
2022/10/28 11:23:57;;;;;;;7.03;4.60;;;;;;;;;;5155571;27;20458;-73
2022/10/28 11:26:25;;;;;;;10.30;5.13;;;;;;;;;;5156371;27;20464;-74
2022/10/28 11:29:03;;;;;;;6.10;3.17;;;;;;;;;;5156230;27;20451;-73
2022/10/28 11:31:35;;;;;;;6.53;3.13;;;;;;;;;;5156311;27;20552;-73
2022/10/28 11:34:14;;;;;;;10.73;4.50;;;;;;;;;;5155769;27;20455;-73
2022/10/28 11:36:45;;;;;;;7.33;3.43;;;;;;;;;;5155989;27;20520;-73
2022/10/28 11:39:17;;;;;;;7.50;4.33;;;;;;;;;;5156339;27;20467;-73
2022/10/28 11:41:50;;;;;;;5.67;3.70;;;;;;;;;;5156206;27;20451;-74
2022/10/28 11:44:23;;;;;;;9.20;4.00;;;;;;;;;;5155858;27;20455;-73
2022/10/28 11:46:55;;;;;;;6.90;3.70;;;;;;;;;;5156187;27;20471;-73
2022/10/28 11:49:34;;;;;;;4.97;3.63;;;;;;;;;;5156251;27;20451;-74
2022/10/28 11:52:05;;;;;;;11.87;4.10;;;;;;;;;;5155963;27;20512;-73
2022/10/28 11:54:38;;;;;;;6.20;3.73;;;;;;;;;;5155188;27;20463;-73
2022/10/28 11:57:07;;;;;;;5.73;3.57;;;;;;;;;;5155932;27;20502;-73
2022/10/28 11:59:48;;;;;;;5.87;2.80;;;;;;;;;;5156093;27;20448;-73
2022/10/28 12:02:21;;;;;;;4.07;3.67;;;;;;;;;;5156189;27;20461;-74
2022/10/28 12:04:57;;;;;;;11.00;3.57;;;;;;;;;;5155253;27;20483;-73
2022/10/28 12:07:42;;;;;;;5.13;3.03;;;;;;;;;;5155852;27;20544;-74
2022/10/28 12:10:17;;;;;;;6.30;3.10;;;;;;;;;;5139222;27;20459;-73
2022/10/28 12:12:46;;;;;;;4.50;3.07;;;;;;;;;;5155348;27;20463;-73
2022/10/28 12:15:18;;;;;;;5.60;2.90;;;;;;;;;;5155052;27;21008;-73
2022/10/28 12:17:48;;;;;;;6.40;3.00;;;;;;;;;;5155432;27;20439;-73
2022/10/28 12:20:21;;;;;;;4.27;2.50;;;;;;;;;;5155536;27;20444;-73
2022/10/28 12:22:50;;;;;;;9.80;3.40;;;;;;;;;;5155289;27;20455;-75
2022/10/28 12:25:22;;;;;;;4.23;3.17;;;;;;;;;;5152858;27;20471;-73
2022/10/28 12:27:50;;;;;;;3.90;2.97;;;;;;;;;;5154989;27;20482;-73
2022/10/28 12:30:20;;;;;;;5.73;3.17;;;;;;;;;;5155309;27;20458;-73
2022/10/28 12:32:49;;;;;;;11.23;3.43;;;;;;;;;;5154257;27;20481;-73
2022/10/28 12:35:18;;;;;;;6.47;3.47;;;;;;;;;;5154515;27;20494;-73
2022/10/28 12:37:47;;;;;;;7.73;2.60;;;;;;;;;;5154930;27;20466;-73
2022/10/28 12:40:17;;;;;;;6.00;3.43;;;;;;;;;;5155029;27;20444;-73
2022/10/28 12:42:46;;;;;;;6.00;3.03;;;;;;;;;;5154253;27;20471;-73
2022/10/28 12:45:15;;;;;;;4.20;2.60;;;;;;;;;;5154556;27;20881;-73
2022/10/28 12:47:45;;;;;;;4.27;3.03;;;;;;;;;;5154957;27;20504;-74
2022/10/28 12:50:17;;;;;;;6.53;3.50;;;;;;;;;;5155006;27;20448;-73
2022/10/28 12:52:48;;;;;;;7.80;3.20;;;;;;;;;;5155071;27;20948;-73
2022/10/28 12:55:18;;;;;;;5.70;2.90;;;;;;;;;;5154272;27;20527;-72
2022/10/28 12:57:47;;;;;;;4.23;2.97;;;;;;;;;;5154725;27;20452;-73
2022/10/28 13:00:17;;;;;;;4.00;3.10;;;;;;;;;;5154956;27;20451;-74
2022/10/28 13:02:49;;;;;;;4.53;3.37;;;;;;;;;;5152745;27;20460;-73
2022/10/28 13:05:19;;;;;;;12.67;5.27;;;;;;;;;;5153844;27;20478;-71
2022/10/28 13:07:54;;;;;;;18.47;6.33;;;;;;;;;;5153185;27;20451;-72
2022/10/28 13:10:26;;;;;;;7.07;3.90;;;;;;;;;;5154700;27;20444;-72
2022/10/28 13:12:59;;;;;;;9.00;4.33;;;;;;;;;;5154486;27;20500;-73
2022/10/28 13:15:46;;;;;;;12.93;4.13;;;;;;;;;;5153629;27;20525;-72
2022/10/28 13:18:28;;;;;;;6.87;3.23;;;;;;;;;;5154566;27;20443;-72
2022/10/28 13:21:02;;;;;;;7.90;4.00;;;;;;;;;;5098678;27;20461;-73
2022/10/28 13:23:34;;;;;;;7.43;5.30;;;;;;;;;;5153722;27;20440;-72
2022/10/28 13:26:07;;;;;;;7.47;4.57;;;;;;;;;;5152677;27;20823;-72
2022/10/28 13:28:36;;;;;;;6.80;3.87;;;;;;;;;;5154117;27;20443;-72
2022/10/28 13:31:04;;;;;;;8.33;6.30;;;;;;;;;;5154232;27;20444;-72
2022/10/28 13:33:32;;;;;;;9.03;5.37;;;;;;;;;;5153737;27;20471;-72
2022/10/28 13:36:08;;;;;;;4.03;3.40;;;;;;;;;;5152419;27;20499;-72
2022/10/28 13:38:38;;;;;;;3.43;3.13;;;;;;;;;;5154128;27;20859;-72
2022/10/28 13:41:10;;;;;;;5.90;3.40;;;;;;;;;;5152354;27;20473;-72
2022/10/28 13:43:55;;;;;;;6.00;3.77;;;;;;;;;;5153739;27;20455;-72
2022/10/28 13:46:37;;;;;;;7.03;4.23;;;;;;;;;;5153985;27;20462;-72
2022/10/28 13:49:23;;;;;;;6.00;3.07;;;;;;;;;;5157658;27;20454;-72
2022/10/28 13:51:51;;;;;;;3.73;3.33;;;;;;;;;;5158681;27;20440;-72
2022/10/28 13:54:25;;;;;;;4.83;3.13;;;;;;;;;;5158017;27;20932;-72
2022/10/28 13:56:53;;;;;;;7.43;4.23;;;;;;;;;;5157790;27;20478;-72
2022/10/28 13:59:24;;;;;;;4.90;3.73;;;;;;;;;;5158288;27;20793;-72
2022/10/28 14:01:53;;;;;;;3.70;3.33;;;;;;;;;;5158097;27;20442;-72
2022/10/28 14:04:22;;;;;;;10.40;3.40;;;;;;;;;;5157629;27;20443;-72
2022/10/28 14:06:49;;;;;;;6.57;4.13;;;;;;;;;;5157843;27;20460;-72
2022/10/28 14:09:21;;;;;;;7.93;4.20;;;;;;;;;;5157981;27;20451;-72
2022/10/28 14:12:03;;;;;;;5.57;3.60;;;;;;;;;;5156305;27;20459;-72
2022/10/28 14:14:30;;;;;;;6.10;4.00;;;;;;;;;;5157455;27;20453;-74
2022/10/28 14:16:58;;;;;;;7.50;4.80;;;;;;;;;;5155573;27;20491;-72
2022/10/28 14:19:25;;;;;;;9.87;6.13;;;;;;;;;;5157908;27;20823;-72
2022/10/28 14:22:01;;;;;;;8.90;4.60;;;;;;;;;;5157647;27;20782;-72
2022/10/28 14:24:32;;;;;;;11.67;5.63;;;;;;;;;;5155744;27;20454;-72
2022/10/28 14:27:23;;;;;;;4.63;4.20;;;;;;;;;;5157655;27;20456;-72
2022/10/28 14:30:11;;;;;;;10.83;4.70;;;;;;;;;;5132071;27;20479;-72
2022/10/28 14:32:51;;;;;;;11.97;5.80;;;;;;;;;;5157561;27;20446;-72
2022/10/28 14:35:20;;;;;;;7.60;6.30;;;;;;;;;;5156929;27;20455;-72
2022/10/28 14:38:04;;;;;;;6.37;4.47;;;;;;;;;;5157351;27;20448;-72
2022/10/28 14:40:34;;;;;;;8.47;4.67;;;;;;;;;;5156835;27;20500;-72
2022/10/28 14:43:22;;;;;;;6.20;4.23;;;;;;;;;;5157254;27;20459;-72
2022/10/28 14:46:00;;;;;;;7.40;5.07;;;;;;;;;;5112906;27;20983;-73
2022/10/28 14:48:37;;;;;;;7.57;5.60;;;;;;;;;;5157458;27;20449;-73
2022/10/28 14:51:05;;;;;;;11.33;6.73;;;;;;;;;;5155483;27;20909;-73